sensor_id;sensor_type;location;lat;lon;timestamp;temperature;humidity
37285;DHT22;23172;53.550;9.964;2023-07-20T02:16:59;18.40;89.10
37285;DHT22;23172;53.550;9.964;2023-07-20T02:22:01;17.80;96.10
37285;DHT22;23172;53.550;9.964;2023-07-20T02:27:04;17.80;96.20
37285;DHT22;23172;53.550;9.964;2023-07-20T02:42:13;17.70;96.40
37285;DHT22;23172;53.550;9.964;2023-07-20T02:47:16;17.60;96.80
37285;DHT22;23172;53.550;9.964;2023-07-20T02:57:20;17.70;96.90
37285;DHT22;23172;53.550;9.964;2023-07-20T03:02:24;17.70;97.00
37285;DHT22;23172;53.550;9.964;2023-07-20T03:07:26;17.70;96.90
37285;DHT22;23172;53.550;9.964;2023-07-20T03:12:28;17.70;97.00
37285;DHT22;23172;53.550;9.964;2023-07-20T03:17:32;17.70;97.10
37285;DHT22;23172;53.550;9.964;2023-07-20T04:07:58;17.70;97.10
37285;DHT22;23172;53.550;9.964;2023-07-20T04:13:00;17.50;97.60
37285;DHT22;23172;53.550;9.964;2023-07-20T04:18:04;17.50;97.50
37285;DHT22;23172;53.550;9.964;2023-07-20T04:23:06;17.50;97.60
37285;DHT22;23172;53.550;9.964;2023-07-20T04:28:08;17.60;97.70
37285;DHT22;23172;53.550;9.964;2023-07-20T04:33:11;17.60;97.70
37285;DHT22;23172;53.550;9.964;2023-07-20T04:38:14;17.60;97.60
37285;DHT22;23172;53.550;9.964;2023-07-20T04:43:18;17.70;97.60
37285;DHT22;23172;53.550;9.964;2023-07-20T04:48:21;17.70;97.60
37285;DHT22;23172;53.550;9.964;2023-07-20T04:53:23;17.80;97.50
37285;DHT22;23172;53.550;9.964;2023-07-20T04:58:25;17.80;97.50
37285;DHT22;23172;53.550;9.964;2023-07-20T05:03:28;17.80;97.50
37285;DHT22;23172;53.550;9.964;2023-07-20T05:08:30;17.70;97.60
37285;DHT22;23172;53.550;9.964;2023-07-20T05:13:32;17.70;97.70
37285;DHT22;23172;53.550;9.964;2023-07-20T05:18:35;17.70;97.70
37285;DHT22;23172;53.550;9.964;2023-07-20T05:23:37;17.70;97.90
37285;DHT22;23172;53.550;9.964;2023-07-20T05:28:39;17.70;97.90
37285;DHT22;23172;53.550;9.964;2023-07-20T05:33:42;17.80;97.80
37285;DHT22;23172;53.550;9.964;2023-07-20T05:38:44;17.80;97.70
37285;DHT22;23172;53.550;9.964;2023-07-20T05:43:46;17.80;97.80
37285;DHT22;23172;53.550;9.964;2023-07-20T05:48:49;17.90;97.80
37285;DHT22;23172;53.550;9.964;2023-07-20T05:53:51;17.90;97.80
37285;DHT22;23172;53.550;9.964;2023-07-20T05:58:53;17.90;97.70
37285;DHT22;23172;53.550;9.964;2023-07-20T06:03:56;17.90;97.70
37285;DHT22;23172;53.550;9.964;2023-07-20T06:08:58;17.90;97.60
37285;DHT22;23172;53.550;9.964;2023-07-20T06:14:03;18.00;97.70
37285;DHT22;23172;53.550;9.964;2023-07-20T06:19:06;18.00;97.60
37285;DHT22;23172;53.550;9.964;2023-07-20T06:24:08;18.10;97.40
37285;DHT22;23172;53.550;9.964;2023-07-20T06:29:10;18.20;97.40
37285;DHT22;23172;53.550;9.964;2023-07-20T06:34:13;18.30;97.20
37285;DHT22;23172;53.550;9.964;2023-07-20T06:39:15;18.50;97.20
37285;DHT22;23172;53.550;9.964;2023-07-20T06:44:17;18.70;96.80
37285;DHT22;23172;53.550;9.964;2023-07-20T06:49:27;18.70;96.40
37285;DHT22;23172;53.550;9.964;2023-07-20T06:54:29;18.80;96.30
37285;DHT22;23172;53.550;9.964;2023-07-20T06:59:31;18.80;96.00
37285;DHT22;23172;53.550;9.964;2023-07-20T07:04:34;18.80;95.80
37285;DHT22;23172;53.550;9.964;2023-07-20T07:09:36;18.90;95.60
37285;DHT22;23172;53.550;9.964;2023-07-20T07:14:38;19.00;95.00
37285;DHT22;23172;53.550;9.964;2023-07-20T07:19:42;19.10;94.40
37285;DHT22;23172;53.550;9.964;2023-07-20T07:24:45;19.10;94.00
37285;DHT22;23172;53.550;9.964;2023-07-20T07:29:47;19.20;93.50
37285;DHT22;23172;53.550;9.964;2023-07-20T07:34:51;19.30;93.00
37285;DHT22;23172;53.550;9.964;2023-07-20T07:39:53;19.40;91.70
37285;DHT22;23172;53.550;9.964;2023-07-20T07:44:55;19.50;91.10
37285;DHT22;23172;53.550;9.964;2023-07-20T07:49:58;19.60;90.10
37285;DHT22;23172;53.550;9.964;2023-07-20T07:55:00;19.50;90.20
37285;DHT22;23172;53.550;9.964;2023-07-20T08:00:02;19.50;87.90
37285;DHT22;23172;53.550;9.964;2023-07-20T08:05:06;19.70;86.00
37285;DHT22;23172;53.550;9.964;2023-07-20T08:10:09;20.30;84.10
37285;DHT22;23172;53.550;9.964;2023-07-20T08:15:11;21.70;81.00
37285;DHT22;23172;53.550;9.964;2023-07-20T08:20:16;22.40;73.10
37285;DHT22;23172;53.550;9.964;2023-07-20T08:25:18;22.90;72.40
37285;DHT22;23172;53.550;9.964;2023-07-20T08:30:21;25.00;65.50
37285;DHT22;23172;53.550;9.964;2023-07-20T08:35:25;27.00;59.20
37285;DHT22;23172;53.550;9.964;2023-07-20T08:45:29;30.80;52.50
37285;DHT22;23172;53.550;9.964;2023-07-20T08:50:35;29.20;50.20
37285;DHT22;23172;53.550;9.964;2023-07-20T08:55:38;27.30;51.30
37285;DHT22;23172;53.550;9.964;2023-07-20T09:00:41;26.70;53.50
37285;DHT22;23172;53.550;9.964;2023-07-20T09:05:45;29.40;52.20
37285;DHT22;23172;53.550;9.964;2023-07-20T09:10:47;32.90;47.90
37285;DHT22;23172;53.550;9.964;2023-07-20T09:15:53;35.20;43.00
37285;DHT22;23172;53.550;9.964;2023-07-20T09:21:02;34.80;40.30
37285;DHT22;23172;53.550;9.964;2023-07-20T09:26:10;33.50;39.90
37285;DHT22;23172;53.550;9.964;2023-07-20T09:31:16;32.50;40.70
37285;DHT22;23172;53.550;9.964;2023-07-20T09:36:20;32.00;36.30
37285;DHT22;23172;53.550;9.964;2023-07-20T09:41:22;28.80;42.80
37285;DHT22;23172;53.550;9.964;2023-07-20T09:46:24;26.90;46.10
37285;DHT22;23172;53.550;9.964;2023-07-20T09:51:28;26.00;48.00
37285;DHT22;23172;53.550;9.964;2023-07-20T09:56:30;26.90;49.30
37285;DHT22;23172;53.550;9.964;2023-07-20T11:07:37;30.30;47.20
37285;DHT22;23172;53.550;9.964;2023-07-20T11:12:39;31.40;38.10
37285;DHT22;23172;53.550;9.964;2023-07-20T11:17:41;29.60;39.80
37285;DHT22;23172;53.550;9.964;2023-07-20T11:22:46;28.60;40.00
37285;DHT22;23172;53.550;9.964;2023-07-20T11:27:48;27.80;41.60
37285;DHT22;23172;53.550;9.964;2023-07-20T11:32:50;27.50;42.30
37285;DHT22;23172;53.550;9.964;2023-07-20T11:37:53;27.30;42.00
37285;DHT22;23172;53.550;9.964;2023-07-20T11:42:55;27.00;42.20
37285;DHT22;23172;53.550;9.964;2023-07-20T11:47:58;26.80;42.70
37285;DHT22;23172;53.550;9.964;2023-07-20T11:53:02;27.00;43.10
37285;DHT22;23172;53.550;9.964;2023-07-20T11:58:11;27.40;43.00
37285;DHT22;23172;53.550;9.964;2023-07-20T12:03:18;27.80;42.80
37285;DHT22;23172;53.550;9.964;2023-07-20T12:08:20;28.10;42.70
37285;DHT22;23172;53.550;9.964;2023-07-20T12:13:23;28.40;42.20
37285;DHT22;23172;53.550;9.964;2023-07-20T12:18:34;28.50;42.00
37285;DHT22;23172;53.550;9.964;2023-07-20T12:23:37;28.60;41.70
37285;DHT22;23172;53.550;9.964;2023-07-20T12:28:41;27.70;42.10
37285;DHT22;23172;53.550;9.964;2023-07-20T12:33:43;26.90;42.90
37285;DHT22;23172;53.550;9.964;2023-07-20T12:38:45;26.30;43.60
37285;DHT22;23172;53.550;9.964;2023-07-20T12:43:49;26.30;43.60
37285;DHT22;23172;53.550;9.964;2023-07-20T12:48:51;26.20;43.90
37285;DHT22;23172;53.550;9.964;2023-07-20T12:53:54;26.20;44.20
37285;DHT22;23172;53.550;9.964;2023-07-20T12:58:57;26.30;44.60
37285;DHT22;23172;53.550;9.964;2023-07-20T13:03:59;26.50;45.10
37285;DHT22;23172;53.550;9.964;2023-07-20T13:09:00;26.40;44.70
37285;DHT22;23172;53.550;9.964;2023-07-20T13:14:04;27.00;44.90
37285;DHT22;23172;53.550;9.964;2023-07-20T13:19:06;29.20;40.70
37285;DHT22;23172;53.550;9.964;2023-07-20T13:24:08;29.60;38.00
37285;DHT22;23172;53.550;9.964;2023-07-20T13:29:11;29.90;37.60
37285;DHT22;23172;53.550;9.964;2023-07-20T13:34:13;30.90;36.80
37285;DHT22;23172;53.550;9.964;2023-07-20T13:39:15;31.50;35.30
37285;DHT22;23172;53.550;9.964;2023-07-20T13:44:18;31.90;34.70
37285;DHT22;23172;53.550;9.964;2023-07-20T13:49:21;32.30;34.20
37285;DHT22;23172;53.550;9.964;2023-07-20T13:54:23;32.40;33.90
37285;DHT22;23172;53.550;9.964;2023-07-20T13:59:26;32.20;34.00
37285;DHT22;23172;53.550;9.964;2023-07-20T14:04:27;31.90;34.60
37285;DHT22;23172;53.550;9.964;2023-07-20T14:09:29;31.70;34.00
37285;DHT22;23172;53.550;9.964;2023-07-20T14:14:32;31.10;33.60
37285;DHT22;23172;53.550;9.964;2023-07-20T14:19:37;30.20;34.60
37285;DHT22;23172;53.550;9.964;2023-07-20T14:24:39;30.20;35.10
37285;DHT22;23172;53.550;9.964;2023-07-20T14:29:42;30.10;35.60
37285;DHT22;23172;53.550;9.964;2023-07-20T14:34:43;29.80;36.00
37285;DHT22;23172;53.550;9.964;2023-07-20T14:39:45;29.30;36.40
37285;DHT22;23172;53.550;9.964;2023-07-20T14:44:50;28.90;36.20
37285;DHT22;23172;53.550;9.964;2023-07-20T14:49:52;28.40;36.50
37285;DHT22;23172;53.550;9.964;2023-07-20T14:54:54;28.50;37.20
37285;DHT22;23172;53.550;9.964;2023-07-20T14:59:57;28.40;37.00
37285;DHT22;23172;53.550;9.964;2023-07-20T15:04:59;28.30;37.50
37285;DHT22;23172;53.550;9.964;2023-07-20T15:10:04;28.20;38.10
37285;DHT22;23172;53.550;9.964;2023-07-20T15:15:08;27.80;38.60
37285;DHT22;23172;53.550;9.964;2023-07-20T15:20:12;27.20;39.40
37285;DHT22;23172;53.550;9.964;2023-07-20T15:25:14;26.80;40.60
37285;DHT22;23172;53.550;9.964;2023-07-20T15:30:17;26.50;40.60
37285;DHT22;23172;53.550;9.964;2023-07-20T15:35:19;26.20;41.70
37285;DHT22;23172;53.550;9.964;2023-07-20T15:40:21;26.10;41.70
37285;DHT22;23172;53.550;9.964;2023-07-20T15:45:24;25.90;42.40
37285;DHT22;23172;53.550;9.964;2023-07-20T15:55:29;25.60;42.00
37285;DHT22;23172;53.550;9.964;2023-07-20T16:00:32;24.80;43.70
37285;DHT22;23172;53.550;9.964;2023-07-20T16:05:34;24.60;44.10
37285;DHT22;23172;53.550;9.964;2023-07-20T16:10:35;24.40;44.20
37285;DHT22;23172;53.550;9.964;2023-07-20T16:15:39;24.40;44.50
37285;DHT22;23172;53.550;9.964;2023-07-20T16:20:41;24.30;44.60
37285;DHT22;23172;53.550;9.964;2023-07-20T16:25:45;24.00;45.00
37285;DHT22;23172;53.550;9.964;2023-07-20T16:30:49;23.70;45.80
37285;DHT22;23172;53.550;9.964;2023-07-20T16:35:51;23.30;46.40
37285;DHT22;23172;53.550;9.964;2023-07-20T16:40:55;23.30;46.80
37285;DHT22;23172;53.550;9.964;2023-07-20T16:46:02;23.30;47.20
37285;DHT22;23172;53.550;9.964;2023-07-20T16:51:04;23.10;46.70
37285;DHT22;23172;53.550;9.964;2023-07-20T16:56:06;23.00;47.20
37285;DHT22;23172;53.550;9.964;2023-07-20T17:01:09;22.80;47.60
37285;DHT22;23172;53.550;9.964;2023-07-20T17:06:11;22.80;47.70
37285;DHT22;23172;53.550;9.964;2023-07-20T17:11:13;22.70;47.90
37285;DHT22;23172;53.550;9.964;2023-07-20T17:16:16;22.70;48.40
37285;DHT22;23172;53.550;9.964;2023-07-20T17:21:18;22.70;48.00
37285;DHT22;23172;53.550;9.964;2023-07-20T17:26:20;22.50;48.20
37285;DHT22;23172;53.550;9.964;2023-07-20T17:31:23;22.40;48.90
37285;DHT22;23172;53.550;9.964;2023-07-20T17:36:28;22.40;49.20
37285;DHT22;23172;53.550;9.964;2023-07-20T17:41:30;22.30;49.60
37285;DHT22;23172;53.550;9.964;2023-07-20T17:46:34;22.20;49.70
37285;DHT22;23172;53.550;9.964;2023-07-20T17:51:36;22.30;50.00
37285;DHT22;23172;53.550;9.964;2023-07-20T17:56:37;22.20;50.10
37285;DHT22;23172;53.550;9.964;2023-07-20T18:01:41;22.20;50.00
37285;DHT22;23172;53.550;9.964;2023-07-20T18:06:43;22.20;50.30
37285;DHT22;23172;53.550;9.964;2023-07-20T18:11:45;22.10;50.70
37285;DHT22;23172;53.550;9.964;2023-07-20T18:16:48;22.00;51.40
37285;DHT22;23172;53.550;9.964;2023-07-20T18:21:50;22.00;51.60
37285;DHT22;23172;53.550;9.964;2023-07-20T18:26:52;21.90;51.70
37285;DHT22;23172;53.550;9.964;2023-07-20T18:31:55;21.90;51.90
37285;DHT22;23172;53.550;9.964;2023-07-20T18:36:57;21.70;52.40
37285;DHT22;23172;53.550;9.964;2023-07-20T18:41:59;21.70;52.70
37285;DHT22;23172;53.550;9.964;2023-07-20T18:47:03;21.50;53.10
37285;DHT22;23172;53.550;9.964;2023-07-20T18:52:05;21.40;53.30
37285;DHT22;23172;53.550;9.964;2023-07-20T18:57:07;21.30;53.80
37285;DHT22;23172;53.550;9.964;2023-07-20T19:02:11;21.30;54.20
37285;DHT22;23172;53.550;9.964;2023-07-20T19:07:13;21.20;54.30
37285;DHT22;23172;53.550;9.964;2023-07-20T19:12:15;21.10;54.50
37285;DHT22;23172;53.550;9.964;2023-07-20T19:17:18;21.10;54.50
37285;DHT22;23172;53.550;9.964;2023-07-20T19:22:24;21.10;54.50
37285;DHT22;23172;53.550;9.964;2023-07-20T19:27:26;21.00;54.50
37285;DHT22;23172;53.550;9.964;2023-07-20T19:32:29;21.00;54.70
37285;DHT22;23172;53.550;9.964;2023-07-20T19:37:31;20.90;55.00
37285;DHT22;23172;53.550;9.964;2023-07-20T19:42:33;20.90;55.10
37285;DHT22;23172;53.550;9.964;2023-07-20T19:47:36;20.90;55.20
37285;DHT22;23172;53.550;9.964;2023-07-20T19:52:38;20.90;56.20
37285;DHT22;23172;53.550;9.964;2023-07-20T19:57:40;20.80;55.90
37285;DHT22;23172;53.550;9.964;2023-07-20T20:02:43;20.80;56.90
37285;DHT22;23172;53.550;9.964;2023-07-20T20:07:45;20.70;56.50
37285;DHT22;23172;53.550;9.964;2023-07-20T20:12:49;20.60;56.90
37285;DHT22;23172;53.550;9.964;2023-07-20T20:17:52;20.60;57.10
37285;DHT22;23172;53.550;9.964;2023-07-20T20:22:54;20.60;57.40
37285;DHT22;23172;53.550;9.964;2023-07-20T20:32:58;20.40;57.80
37285;DHT22;23172;53.550;9.964;2023-07-20T20:38:00;20.40;58.20
37285;DHT22;23172;53.550;9.964;2023-07-20T20:43:01;20.40;58.50
37285;DHT22;23172;53.550;9.964;2023-07-20T20:48:08;20.30;58.60
37285;DHT22;23172;53.550;9.964;2023-07-20T20:53:11;20.30;58.70
37285;DHT22;23172;53.550;9.964;2023-07-20T20:58:14;20.20;58.80
37285;DHT22;23172;53.550;9.964;2023-07-20T21:03:17;20.10;58.90
37285;DHT22;23172;53.550;9.964;2023-07-20T21:08:19;20.10;59.20
37285;DHT22;23172;53.550;9.964;2023-07-20T21:13:21;19.90;59.50
37285;DHT22;23172;53.550;9.964;2023-07-20T21:18:24;19.80;59.70
37285;DHT22;23172;53.550;9.964;2023-07-20T21:23:26;19.80;59.90
37285;DHT22;23172;53.550;9.964;2023-07-20T21:28:28;19.70;60.20
37285;DHT22;23172;53.550;9.964;2023-07-20T21:33:32;19.60;60.50
37285;DHT22;23172;53.550;9.964;2023-07-20T21:38:34;19.60;60.70
37285;DHT22;23172;53.550;9.964;2023-07-20T21:43:38;19.50;61.00
37285;DHT22;23172;53.550;9.964;2023-07-20T21:48:41;19.50;61.10
37285;DHT22;23172;53.550;9.964;2023-07-20T21:53:43;19.40;61.20
37285;DHT22;23172;53.550;9.964;2023-07-20T21:58:45;19.40;61.50
37285;DHT22;23172;53.550;9.964;2023-07-20T22:03:49;19.40;61.70
37285;DHT22;23172;53.550;9.964;2023-07-20T22:08:51;19.40;61.90
37285;DHT22;23172;53.550;9.964;2023-07-20T22:13:53;19.40;62.00
37285;DHT22;23172;53.550;9.964;2023-07-20T22:18:56;19.40;62.10
37285;DHT22;23172;53.550;9.964;2023-07-20T22:24:01;19.40;62.40
37285;DHT22;23172;53.550;9.964;2023-07-20T22:29:03;19.40;62.50
37285;DHT22;23172;53.550;9.964;2023-07-20T22:34:06;19.40;62.70
37285;DHT22;23172;53.550;9.964;2023-07-20T22:39:08;19.40;62.80
37285;DHT22;23172;53.550;9.964;2023-07-20T22:44:10;19.40;62.90
37285;DHT22;23172;53.550;9.964;2023-07-20T22:49:13;19.40;63.60
37285;DHT22;23172;53.550;9.964;2023-07-20T22:54:15;19.40;62.70
37285;DHT22;23172;53.550;9.964;2023-07-20T22:59:17;19.40;62.70
37285;DHT22;23172;53.550;9.964;2023-07-20T23:04:21;19.40;62.70
37285;DHT22;23172;53.550;9.964;2023-07-20T23:09:23;19.40;62.60
37285;DHT22;23172;53.550;9.964;2023-07-20T23:14:25;19.40;62.70
37285;DHT22;23172;53.550;9.964;2023-07-20T23:19:28;19.50;62.70
37285;DHT22;23172;53.550;9.964;2023-07-20T23:24:31;19.50;62.80
37285;DHT22;23172;53.550;9.964;2023-07-20T23:29:34;19.40;62.80
37285;DHT22;23172;53.550;9.964;2023-07-20T23:34:39;19.40;62.90
37285;DHT22;23172;53.550;9.964;2023-07-20T23:39:41;19.40;63.00
37285;DHT22;23172;53.550;9.964;2023-07-20T23:44:44;19.40;63.00
37285;DHT22;23172;53.550;9.964;2023-07-20T23:49:47;19.40;62.90
37285;DHT22;23172;53.550;9.964;2023-07-20T23:54:49;19.40;62.90
37285;DHT22;23172;53.550;9.964;2023-07-20T23:59:51;19.40;62.90
